sensor_id;sensor_type;location;lat;lon;timestamp;P1;durP1;ratioP1;P2;durP2;ratioP2
35380;SDS011;21486;51.916;8.378;2023-08-30T00:00:09;25.80;;;16.10;;
35380;SDS011;21486;51.916;8.378;2023-08-30T00:02:35;26.00;;;16.13;;
35380;SDS011;21486;51.916;8.378;2023-08-30T00:05:02;25.98;;;15.80;;
35380;SDS011;21486;51.916;8.378;2023-08-30T00:07:29;21.23;;;15.98;;
35380;SDS011;21486;51.916;8.378;2023-08-30T00:09:55;23.85;;;16.08;;
35380;SDS011;21486;51.916;8.378;2023-08-30T00:12:21;23.35;;;17.08;;
35380;SDS011;21486;51.916;8.378;2023-08-30T00:14:47;21.70;;;15.90;;
35380;SDS011;21486;51.916;8.378;2023-08-30T00:17:13;26.75;;;15.77;;
35380;SDS011;21486;51.916;8.378;2023-08-30T00:19:39;21.20;;;16.30;;
35380;SDS011;21486;51.916;8.378;2023-08-30T00:22:05;21.67;;;16.27;;
35380;SDS011;21486;51.916;8.378;2023-08-30T00:24:32;22.53;;;16.43;;
35380;SDS011;21486;51.916;8.378;2023-08-30T00:26:58;22.83;;;16.73;;
35380;SDS011;21486;51.916;8.378;2023-08-30T00:29:24;21.25;;;15.88;;
35380;SDS011;21486;51.916;8.378;2023-08-30T00:33:02;23.55;;;16.17;;
35380;SDS011;21486;51.916;8.378;2023-08-30T00:35:27;22.05;;;15.40;;
35380;SDS011;21486;51.916;8.378;2023-08-30T00:37:53;21.08;;;14.57;;
35380;SDS011;21486;51.916;8.378;2023-08-30T00:40:22;18.67;;;14.40;;
35380;SDS011;21486;51.916;8.378;2023-08-30T00:42:49;19.95;;;14.88;;
35380;SDS011;21486;51.916;8.378;2023-08-30T00:45:15;21.63;;;14.87;;
35380;SDS011;21486;51.916;8.378;2023-08-30T00:47:40;19.55;;;14.50;;
35380;SDS011;21486;51.916;8.378;2023-08-30T00:50:06;19.60;;;14.20;;
35380;SDS011;21486;51.916;8.378;2023-08-30T00:52:32;21.77;;;13.80;;
35380;SDS011;21486;51.916;8.378;2023-08-30T00:54:58;20.67;;;14.47;;
35380;SDS011;21486;51.916;8.378;2023-08-30T00:57:24;19.38;;;14.10;;
35380;SDS011;21486;51.916;8.378;2023-08-30T00:59:50;18.40;;;14.57;;
35380;SDS011;21486;51.916;8.378;2023-08-30T01:02:18;21.00;;;15.10;;
35380;SDS011;21486;51.916;8.378;2023-08-30T01:04:44;20.25;;;14.52;;
35380;SDS011;21486;51.916;8.378;2023-08-30T01:07:10;20.75;;;14.55;;
35380;SDS011;21486;51.916;8.378;2023-08-30T01:09:36;21.08;;;14.57;;
35380;SDS011;21486;51.916;8.378;2023-08-30T01:17:14;21.08;;;14.48;;
35380;SDS011;21486;51.916;8.378;2023-08-30T01:22:17;18.15;;;13.63;;
35380;SDS011;21486;51.916;8.378;2023-08-30T01:24:45;19.50;;;13.25;;
35380;SDS011;21486;51.916;8.378;2023-08-30T01:27:29;17.47;;;12.93;;
35380;SDS011;21486;51.916;8.378;2023-08-30T01:29:59;18.00;;;13.13;;
35380;SDS011;21486;51.916;8.378;2023-08-30T01:32:26;19.10;;;13.02;;
35380;SDS011;21486;51.916;8.378;2023-08-30T01:34:53;20.90;;;13.20;;
35380;SDS011;21486;51.916;8.378;2023-08-30T01:37:20;17.27;;;12.93;;
35380;SDS011;21486;51.916;8.378;2023-08-30T01:39:47;20.57;;;13.73;;
35380;SDS011;21486;51.916;8.378;2023-08-30T01:42:13;21.48;;;13.65;;
35380;SDS011;21486;51.916;8.378;2023-08-30T01:44:40;18.38;;;14.27;;
35380;SDS011;21486;51.916;8.378;2023-08-30T01:47:09;23.00;;;13.90;;
35380;SDS011;21486;51.916;8.378;2023-08-30T01:49:36;21.00;;;14.57;;
35380;SDS011;21486;51.916;8.378;2023-08-30T01:52:04;21.92;;;14.45;;
35380;SDS011;21486;51.916;8.378;2023-08-30T01:54:31;17.23;;;13.27;;
35380;SDS011;21486;51.916;8.378;2023-08-30T01:56:57;24.27;;;13.83;;
35380;SDS011;21486;51.916;8.378;2023-08-30T01:59:24;19.27;;;14.23;;
35380;SDS011;21486;51.916;8.378;2023-08-30T02:01:50;18.65;;;13.77;;
35380;SDS011;21486;51.916;8.378;2023-08-30T02:04:16;20.47;;;14.87;;
35380;SDS011;21486;51.916;8.378;2023-08-30T02:06:45;24.33;;;15.07;;
35380;SDS011;21486;51.916;8.378;2023-08-30T02:09:19;20.98;;;15.25;;
35380;SDS011;21486;51.916;8.378;2023-08-30T02:11:51;21.30;;;15.23;;
35380;SDS011;21486;51.916;8.378;2023-08-30T02:14:18;23.13;;;14.80;;
35380;SDS011;21486;51.916;8.378;2023-08-30T02:16:46;19.33;;;13.95;;
35380;SDS011;21486;51.916;8.378;2023-08-30T02:19:12;20.33;;;13.75;;
35380;SDS011;21486;51.916;8.378;2023-08-30T02:21:41;20.00;;;14.57;;
35380;SDS011;21486;51.916;8.378;2023-08-30T02:24:07;18.83;;;14.13;;
35380;SDS011;21486;51.916;8.378;2023-08-30T02:26:33;19.58;;;13.85;;
35380;SDS011;21486;51.916;8.378;2023-08-30T02:28:59;19.80;;;14.25;;
35380;SDS011;21486;51.916;8.378;2023-08-30T02:31:24;24.30;;;15.00;;
35380;SDS011;21486;51.916;8.378;2023-08-30T02:33:50;20.70;;;14.70;;
35380;SDS011;21486;51.916;8.378;2023-08-30T02:36:15;20.10;;;14.57;;
35380;SDS011;21486;51.916;8.378;2023-08-30T02:38:41;20.85;;;14.95;;
35380;SDS011;21486;51.916;8.378;2023-08-30T02:41:06;20.17;;;14.10;;
35380;SDS011;21486;51.916;8.378;2023-08-30T02:43:32;21.60;;;14.63;;
35380;SDS011;21486;51.916;8.378;2023-08-30T02:45:58;19.60;;;14.52;;
35380;SDS011;21486;51.916;8.378;2023-08-30T02:48:23;20.20;;;14.50;;
35380;SDS011;21486;51.916;8.378;2023-08-30T02:50:49;23.27;;;15.17;;
35380;SDS011;21486;51.916;8.378;2023-08-30T02:53:14;24.67;;;15.00;;
35380;SDS011;21486;51.916;8.378;2023-08-30T02:55:40;21.45;;;14.18;;
35380;SDS011;21486;51.916;8.378;2023-08-30T02:58:05;21.17;;;14.70;;
35380;SDS011;21486;51.916;8.378;2023-08-30T03:00:31;20.90;;;14.33;;
35380;SDS011;21486;51.916;8.378;2023-08-30T03:02:56;22.13;;;14.68;;
35380;SDS011;21486;51.916;8.378;2023-08-30T03:05:22;19.40;;;14.23;;
35380;SDS011;21486;51.916;8.378;2023-08-30T03:07:47;19.73;;;14.37;;
35380;SDS011;21486;51.916;8.378;2023-08-30T03:10:13;20.25;;;14.60;;
35380;SDS011;21486;51.916;8.378;2023-08-30T03:12:38;18.90;;;13.70;;
35380;SDS011;21486;51.916;8.378;2023-08-30T03:15:04;19.80;;;14.40;;
35380;SDS011;21486;51.916;8.378;2023-08-30T03:17:30;18.70;;;13.40;;
35380;SDS011;21486;51.916;8.378;2023-08-30T03:19:56;18.07;;;13.83;;
35380;SDS011;21486;51.916;8.378;2023-08-30T03:22:21;21.80;;;14.82;;
35380;SDS011;21486;51.916;8.378;2023-08-30T03:24:47;21.05;;;14.85;;
35380;SDS011;21486;51.916;8.378;2023-08-30T03:27:14;24.00;;;15.27;;
35380;SDS011;21486;51.916;8.378;2023-08-30T03:29:39;21.90;;;14.80;;
35380;SDS011;21486;51.916;8.378;2023-08-30T03:32:05;19.57;;;13.87;;
35380;SDS011;21486;51.916;8.378;2023-08-30T03:34:31;20.17;;;14.77;;
35380;SDS011;21486;51.916;8.378;2023-08-30T03:36:56;21.20;;;14.73;;
35380;SDS011;21486;51.916;8.378;2023-08-30T03:39:22;18.80;;;13.97;;
35380;SDS011;21486;51.916;8.378;2023-08-30T03:41:49;20.05;;;14.43;;
35380;SDS011;21486;51.916;8.378;2023-08-30T03:44:15;19.20;;;13.75;;
35380;SDS011;21486;51.916;8.378;2023-08-30T03:46:40;22.55;;;14.82;;
35380;SDS011;21486;51.916;8.378;2023-08-30T03:49:06;23.63;;;15.07;;
35380;SDS011;21486;51.916;8.378;2023-08-30T03:51:31;24.90;;;15.20;;
35380;SDS011;21486;51.916;8.378;2023-08-30T03:53:57;21.98;;;15.05;;
35380;SDS011;21486;51.916;8.378;2023-08-30T03:56:23;23.30;;;15.27;;
35380;SDS011;21486;51.916;8.378;2023-08-30T03:58:48;21.87;;;14.77;;
35380;SDS011;21486;51.916;8.378;2023-08-30T04:01:14;24.60;;;15.15;;
35380;SDS011;21486;51.916;8.378;2023-08-30T04:03:39;19.63;;;15.10;;
35380;SDS011;21486;51.916;8.378;2023-08-30T04:06:05;24.17;;;15.88;;
35380;SDS011;21486;51.916;8.378;2023-08-30T04:08:31;25.13;;;14.97;;
35380;SDS011;21486;51.916;8.378;2023-08-30T04:10:57;22.53;;;14.87;;
35380;SDS011;21486;51.916;8.378;2023-08-30T04:13:22;21.70;;;14.30;;
35380;SDS011;21486;51.916;8.378;2023-08-30T04:15:48;22.08;;;14.43;;
35380;SDS011;21486;51.916;8.378;2023-08-30T04:18:14;20.48;;;14.90;;
35380;SDS011;21486;51.916;8.378;2023-08-30T04:20:43;19.88;;;14.68;;
35380;SDS011;21486;51.916;8.378;2023-08-30T04:23:10;23.23;;;14.57;;
35380;SDS011;21486;51.916;8.378;2023-08-30T04:25:36;24.10;;;15.57;;
35380;SDS011;21486;51.916;8.378;2023-08-30T04:28:02;22.40;;;15.87;;
35380;SDS011;21486;51.916;8.378;2023-08-30T04:30:28;24.60;;;16.23;;
35380;SDS011;21486;51.916;8.378;2023-08-30T04:32:53;25.10;;;16.33;;
35380;SDS011;21486;51.916;8.378;2023-08-30T04:35:19;22.97;;;16.20;;
35380;SDS011;21486;51.916;8.378;2023-08-30T04:37:45;22.23;;;15.67;;
35380;SDS011;21486;51.916;8.378;2023-08-30T04:40:10;24.33;;;16.30;;
35380;SDS011;21486;51.916;8.378;2023-08-30T04:42:36;21.30;;;14.73;;
35380;SDS011;21486;51.916;8.378;2023-08-30T04:45:03;25.17;;;15.73;;
35380;SDS011;21486;51.916;8.378;2023-08-30T04:47:29;21.95;;;15.48;;
35380;SDS011;21486;51.916;8.378;2023-08-30T04:49:55;21.15;;;15.65;;
35380;SDS011;21486;51.916;8.378;2023-08-30T04:52:21;22.90;;;15.20;;
35380;SDS011;21486;51.916;8.378;2023-08-30T04:54:46;22.00;;;14.77;;
35380;SDS011;21486;51.916;8.378;2023-08-30T04:57:13;19.88;;;14.57;;
35380;SDS011;21486;51.916;8.378;2023-08-30T04:59:45;23.40;;;14.52;;
35380;SDS011;21486;51.916;8.378;2023-08-30T05:02:11;21.77;;;14.32;;
35380;SDS011;21486;51.916;8.378;2023-08-30T05:04:37;20.38;;;14.07;;
35380;SDS011;21486;51.916;8.378;2023-08-30T05:07:02;21.90;;;14.38;;
35380;SDS011;21486;51.916;8.378;2023-08-30T05:09:29;22.58;;;14.05;;
35380;SDS011;21486;51.916;8.378;2023-08-30T05:11:55;21.40;;;13.27;;
35380;SDS011;21486;51.916;8.378;2023-08-30T05:14:21;17.70;;;12.45;;
35380;SDS011;21486;51.916;8.378;2023-08-30T05:16:47;22.42;;;14.15;;
35380;SDS011;21486;51.916;8.378;2023-08-30T05:19:13;21.67;;;13.88;;
35380;SDS011;21486;51.916;8.378;2023-08-30T05:21:39;19.17;;;13.37;;
35380;SDS011;21486;51.916;8.378;2023-08-30T05:24:04;18.97;;;13.53;;
35380;SDS011;21486;51.916;8.378;2023-08-30T05:26:32;24.27;;;14.63;;
35380;SDS011;21486;51.916;8.378;2023-08-30T05:28:58;22.57;;;14.20;;
35380;SDS011;21486;51.916;8.378;2023-08-30T05:31:23;20.27;;;14.80;;
35380;SDS011;21486;51.916;8.378;2023-08-30T05:33:49;26.33;;;15.00;;
35380;SDS011;21486;51.916;8.378;2023-08-30T05:36:14;22.95;;;15.02;;
35380;SDS011;21486;51.916;8.378;2023-08-30T05:38:40;23.53;;;15.63;;
35380;SDS011;21486;51.916;8.378;2023-08-30T05:41:06;21.45;;;15.10;;
35380;SDS011;21486;51.916;8.378;2023-08-30T05:43:32;23.33;;;15.70;;
35380;SDS011;21486;51.916;8.378;2023-08-30T05:45:58;25.42;;;15.88;;
35380;SDS011;21486;51.916;8.378;2023-08-30T05:48:28;23.95;;;15.88;;
35380;SDS011;21486;51.916;8.378;2023-08-30T05:50:54;21.92;;;15.50;;
35380;SDS011;21486;51.916;8.378;2023-08-30T05:53:19;21.83;;;14.63;;
35380;SDS011;21486;51.916;8.378;2023-08-30T05:55:45;21.50;;;14.50;;
35380;SDS011;21486;51.916;8.378;2023-08-30T05:58:11;22.53;;;14.97;;
35380;SDS011;21486;51.916;8.378;2023-08-30T06:00:36;25.57;;;14.70;;
35380;SDS011;21486;51.916;8.378;2023-08-30T06:03:02;25.70;;;15.60;;
35380;SDS011;21486;51.916;8.378;2023-08-30T06:05:28;23.00;;;15.90;;
35380;SDS011;21486;51.916;8.378;2023-08-30T06:07:54;26.20;;;16.00;;
35380;SDS011;21486;51.916;8.378;2023-08-30T06:10:19;25.27;;;15.87;;
35380;SDS011;21486;51.916;8.378;2023-08-30T06:12:45;29.42;;;16.83;;
35380;SDS011;21486;51.916;8.378;2023-08-30T06:15:10;23.83;;;16.67;;
35380;SDS011;21486;51.916;8.378;2023-08-30T06:17:36;26.47;;;17.50;;
35380;SDS011;21486;51.916;8.378;2023-08-30T06:20:02;26.75;;;17.48;;
35380;SDS011;21486;51.916;8.378;2023-08-30T06:22:28;24.48;;;16.08;;
35380;SDS011;21486;51.916;8.378;2023-08-30T06:24:53;25.05;;;16.70;;
35380;SDS011;21486;51.916;8.378;2023-08-30T06:27:19;25.80;;;17.23;;
35380;SDS011;21486;51.916;8.378;2023-08-30T06:29:45;27.67;;;17.60;;
35380;SDS011;21486;51.916;8.378;2023-08-30T06:32:10;27.77;;;16.70;;
35380;SDS011;21486;51.916;8.378;2023-08-30T06:34:36;26.27;;;17.23;;
35380;SDS011;21486;51.916;8.378;2023-08-30T06:37:02;22.50;;;16.00;;
35380;SDS011;21486;51.916;8.378;2023-08-30T06:39:32;26.00;;;17.70;;
35380;SDS011;21486;51.916;8.378;2023-08-30T06:41:59;25.30;;;17.13;;
35380;SDS011;21486;51.916;8.378;2023-08-30T06:44:24;27.73;;;17.80;;
35380;SDS011;21486;51.916;8.378;2023-08-30T06:46:50;24.08;;;16.13;;
35380;SDS011;21486;51.916;8.378;2023-08-30T06:49:15;26.03;;;17.20;;
35380;SDS011;21486;51.916;8.378;2023-08-30T06:51:41;28.80;;;17.95;;
35380;SDS011;21486;51.916;8.378;2023-08-30T06:54:07;28.17;;;17.90;;
35380;SDS011;21486;51.916;8.378;2023-08-30T06:56:32;29.33;;;18.05;;
35380;SDS011;21486;51.916;8.378;2023-08-30T06:58:58;25.20;;;17.10;;
35380;SDS011;21486;51.916;8.378;2023-08-30T07:01:23;26.70;;;17.87;;
35380;SDS011;21486;51.916;8.378;2023-08-30T07:03:49;27.35;;;18.17;;
35380;SDS011;21486;51.916;8.378;2023-08-30T07:06:15;27.52;;;18.40;;
35380;SDS011;21486;51.916;8.378;2023-08-30T07:08:40;29.00;;;18.70;;
35380;SDS011;21486;51.916;8.378;2023-08-30T07:11:06;28.40;;;18.10;;
35380;SDS011;21486;51.916;8.378;2023-08-30T07:13:31;29.42;;;19.17;;
35380;SDS011;21486;51.916;8.378;2023-08-30T07:15:57;26.73;;;18.43;;
35380;SDS011;21486;51.916;8.378;2023-08-30T07:18:22;27.88;;;19.17;;
35380;SDS011;21486;51.916;8.378;2023-08-30T07:20:48;30.83;;;18.98;;
35380;SDS011;21486;51.916;8.378;2023-08-30T07:23:13;31.00;;;19.93;;
35380;SDS011;21486;51.916;8.378;2023-08-30T07:25:39;28.63;;;18.85;;
35380;SDS011;21486;51.916;8.378;2023-08-30T07:28:05;29.57;;;18.73;;
35380;SDS011;21486;51.916;8.378;2023-08-30T07:30:30;29.80;;;18.75;;
35380;SDS011;21486;51.916;8.378;2023-08-30T07:32:56;33.33;;;18.97;;
35380;SDS011;21486;51.916;8.378;2023-08-30T07:35:22;30.77;;;18.80;;
35380;SDS011;21486;51.916;8.378;2023-08-30T07:37:47;25.25;;;17.45;;
35380;SDS011;21486;51.916;8.378;2023-08-30T07:40:13;27.30;;;17.95;;
35380;SDS011;21486;51.916;8.378;2023-08-30T07:42:39;29.13;;;18.47;;
35380;SDS011;21486;51.916;8.378;2023-08-30T07:45:05;27.00;;;18.23;;
35380;SDS011;21486;51.916;8.378;2023-08-30T07:47:31;29.77;;;18.63;;
35380;SDS011;21486;51.916;8.378;2023-08-30T07:49:56;35.40;;;18.63;;
35380;SDS011;21486;51.916;8.378;2023-08-30T07:52:22;32.33;;;18.70;;
35380;SDS011;21486;51.916;8.378;2023-08-30T07:54:47;29.13;;;17.90;;
35380;SDS011;21486;51.916;8.378;2023-08-30T07:57:13;30.48;;;18.50;;
35380;SDS011;21486;51.916;8.378;2023-08-30T07:59:38;29.87;;;18.63;;
35380;SDS011;21486;51.916;8.378;2023-08-30T08:02:04;33.80;;;21.00;;
35380;SDS011;21486;51.916;8.378;2023-08-30T08:04:32;31.27;;;19.90;;
35380;SDS011;21486;51.916;8.378;2023-08-30T08:06:58;30.63;;;19.50;;
35380;SDS011;21486;51.916;8.378;2023-08-30T08:09:24;29.70;;;19.90;;
35380;SDS011;21486;51.916;8.378;2023-08-30T08:11:49;30.70;;;20.17;;
35380;SDS011;21486;51.916;8.378;2023-08-30T08:14:15;31.20;;;19.23;;
35380;SDS011;21486;51.916;8.378;2023-08-30T08:16:40;29.97;;;18.90;;
35380;SDS011;21486;51.916;8.378;2023-08-30T08:19:06;28.88;;;18.80;;
35380;SDS011;21486;51.916;8.378;2023-08-30T08:21:33;29.98;;;18.35;;
35380;SDS011;21486;51.916;8.378;2023-08-30T08:23:58;31.42;;;18.52;;
35380;SDS011;21486;51.916;8.378;2023-08-30T08:26:24;26.63;;;18.00;;
35380;SDS011;21486;51.916;8.378;2023-08-30T08:28:50;27.52;;;17.90;;
35380;SDS011;21486;51.916;8.378;2023-08-30T08:31:16;27.33;;;17.88;;
35380;SDS011;21486;51.916;8.378;2023-08-30T08:33:41;27.07;;;18.30;;
35380;SDS011;21486;51.916;8.378;2023-08-30T08:36:07;29.83;;;18.57;;
35380;SDS011;21486;51.916;8.378;2023-08-30T08:38:33;28.40;;;16.93;;
35380;SDS011;21486;51.916;8.378;2023-08-30T08:41:02;24.07;;;16.50;;
35380;SDS011;21486;51.916;8.378;2023-08-30T08:43:30;25.25;;;16.85;;
35380;SDS011;21486;51.916;8.378;2023-08-30T08:46:01;26.05;;;17.73;;
35380;SDS011;21486;51.916;8.378;2023-08-30T08:48:28;25.08;;;17.60;;
35380;SDS011;21486;51.916;8.378;2023-08-30T08:50:56;26.95;;;17.55;;
35380;SDS011;21486;51.916;8.378;2023-08-30T08:53:22;27.60;;;17.50;;
35380;SDS011;21486;51.916;8.378;2023-08-30T08:55:48;25.27;;;17.08;;
35380;SDS011;21486;51.916;8.378;2023-08-30T08:58:14;25.42;;;17.20;;
35380;SDS011;21486;51.916;8.378;2023-08-30T09:00:43;28.10;;;17.85;;
35380;SDS011;21486;51.916;8.378;2023-08-30T09:03:10;26.67;;;17.27;;
35380;SDS011;21486;51.916;8.378;2023-08-30T09:05:37;24.80;;;16.98;;
35380;SDS011;21486;51.916;8.378;2023-08-30T09:08:04;23.17;;;16.98;;
35380;SDS011;21486;51.916;8.378;2023-08-30T09:10:34;24.23;;;16.67;;
35380;SDS011;21486;51.916;8.378;2023-08-30T09:13:01;26.33;;;15.77;;
35380;SDS011;21486;51.916;8.378;2023-08-30T09:15:32;28.30;;;15.77;;
35380;SDS011;21486;51.916;8.378;2023-08-30T09:17:59;21.85;;;14.57;;
35380;SDS011;21486;51.916;8.378;2023-08-30T09:20:25;20.48;;;14.60;;
35380;SDS011;21486;51.916;8.378;2023-08-30T09:22:50;21.90;;;13.27;;
35380;SDS011;21486;51.916;8.378;2023-08-30T09:25:25;17.13;;;11.87;;
35380;SDS011;21486;51.916;8.378;2023-08-30T09:27:58;19.85;;;13.43;;
35380;SDS011;21486;51.916;8.378;2023-08-30T09:30:24;18.67;;;12.52;;
35380;SDS011;21486;51.916;8.378;2023-08-30T09:32:50;19.15;;;13.35;;
35380;SDS011;21486;51.916;8.378;2023-08-30T09:35:16;18.40;;;12.60;;
35380;SDS011;21486;51.916;8.378;2023-08-30T09:37:44;20.85;;;13.65;;
35380;SDS011;21486;51.916;8.378;2023-08-30T09:40:10;19.35;;;13.93;;
35380;SDS011;21486;51.916;8.378;2023-08-30T09:42:40;16.77;;;13.02;;
35380;SDS011;21486;51.916;8.378;2023-08-30T09:45:16;17.02;;;11.57;;
35380;SDS011;21486;51.916;8.378;2023-08-30T09:47:46;15.97;;;10.40;;
35380;SDS011;21486;51.916;8.378;2023-08-30T09:50:12;13.10;;;8.90;;
35380;SDS011;21486;51.916;8.378;2023-08-30T09:52:41;14.00;;;8.48;;
35380;SDS011;21486;51.916;8.378;2023-08-30T09:55:08;13.15;;;8.40;;
35380;SDS011;21486;51.916;8.378;2023-08-30T09:57:34;11.25;;;7.35;;
35380;SDS011;21486;51.916;8.378;2023-08-30T10:00:01;12.07;;;7.60;;
35380;SDS011;21486;51.916;8.378;2023-08-30T10:02:28;13.68;;;8.27;;
35380;SDS011;21486;51.916;8.378;2023-08-30T10:04:57;12.70;;;8.00;;
35380;SDS011;21486;51.916;8.378;2023-08-30T10:07:23;13.98;;;8.57;;
35380;SDS011;21486;51.916;8.378;2023-08-30T10:09:50;13.65;;;9.02;;
35380;SDS011;21486;51.916;8.378;2023-08-30T10:12:19;16.25;;;9.00;;
35380;SDS011;21486;51.916;8.378;2023-08-30T10:14:47;10.00;;;7.03;;
35380;SDS011;21486;51.916;8.378;2023-08-30T10:17:13;10.30;;;6.23;;
35380;SDS011;21486;51.916;8.378;2023-08-30T10:19:42;12.20;;;5.47;;
35380;SDS011;21486;51.916;8.378;2023-08-30T10:22:10;8.77;;;5.65;;
35380;SDS011;21486;51.916;8.378;2023-08-30T10:24:43;10.88;;;6.07;;
35380;SDS011;21486;51.916;8.378;2023-08-30T10:27:11;9.48;;;5.38;;
35380;SDS011;21486;51.916;8.378;2023-08-30T10:29:40;9.90;;;4.88;;
35380;SDS011;21486;51.916;8.378;2023-08-30T10:32:07;9.30;;;4.70;;
35380;SDS011;21486;51.916;8.378;2023-08-30T10:34:33;8.55;;;5.30;;
35380;SDS011;21486;51.916;8.378;2023-08-30T10:37:00;12.43;;;5.90;;
35380;SDS011;21486;51.916;8.378;2023-08-30T10:39:34;11.02;;;5.65;;
35380;SDS011;21486;51.916;8.378;2023-08-30T10:42:01;8.32;;;5.15;;
35380;SDS011;21486;51.916;8.378;2023-08-30T10:44:33;9.05;;;4.90;;
35380;SDS011;21486;51.916;8.378;2023-08-30T10:46:59;7.10;;;4.50;;
35380;SDS011;21486;51.916;8.378;2023-08-30T10:49:27;9.18;;;4.75;;
35380;SDS011;21486;51.916;8.378;2023-08-30T10:51:56;8.53;;;4.33;;
35380;SDS011;21486;51.916;8.378;2023-08-30T10:54:22;10.75;;;4.35;;
35380;SDS011;21486;51.916;8.378;2023-08-30T10:59:20;9.18;;;4.22;;
35380;SDS011;21486;51.916;8.378;2023-08-30T11:01:47;8.03;;;4.10;;
35380;SDS011;21486;51.916;8.378;2023-08-30T11:04:16;7.15;;;4.60;;
35380;SDS011;21486;51.916;8.378;2023-08-30T11:06:43;9.70;;;4.77;;
35380;SDS011;21486;51.916;8.378;2023-08-30T11:09:12;9.65;;;4.28;;
35380;SDS011;21486;51.916;8.378;2023-08-30T11:11:42;10.93;;;5.03;;
35380;SDS011;21486;51.916;8.378;2023-08-30T11:14:09;11.40;;;5.40;;
35380;SDS011;21486;51.916;8.378;2023-08-30T11:16:35;10.53;;;5.03;;
35380;SDS011;21486;51.916;8.378;2023-08-30T11:19:05;14.82;;;7.10;;
35380;SDS011;21486;51.916;8.378;2023-08-30T11:21:33;19.25;;;8.35;;
35380;SDS011;21486;51.916;8.378;2023-08-30T11:24:00;9.32;;;5.35;;
35380;SDS011;21486;51.916;8.378;2023-08-30T11:26:26;13.10;;;6.18;;
35380;SDS011;21486;51.916;8.378;2023-08-30T11:28:51;8.77;;;4.68;;
35380;SDS011;21486;51.916;8.378;2023-08-30T11:31:24;9.52;;;5.15;;
35380;SDS011;21486;51.916;8.378;2023-08-30T11:33:53;13.85;;;5.43;;
35380;SDS011;21486;51.916;8.378;2023-08-30T11:36:21;9.32;;;4.80;;
35380;SDS011;21486;51.916;8.378;2023-08-30T11:38:47;9.38;;;4.93;;
35380;SDS011;21486;51.916;8.378;2023-08-30T11:41:14;10.98;;;5.63;;
35380;SDS011;21486;51.916;8.378;2023-08-30T11:43:40;8.23;;;4.45;;
35380;SDS011;21486;51.916;8.378;2023-08-30T11:46:05;8.80;;;4.90;;
35380;SDS011;21486;51.916;8.378;2023-08-30T11:48:32;6.97;;;4.70;;
35380;SDS011;21486;51.916;8.378;2023-08-30T11:50:58;7.93;;;4.78;;
35380;SDS011;21486;51.916;8.378;2023-08-30T11:53:24;9.35;;;4.60;;
35380;SDS011;21486;51.916;8.378;2023-08-30T11:55:50;9.57;;;4.63;;
35380;SDS011;21486;51.916;8.378;2023-08-30T11:58:20;8.02;;;5.10;;
35380;SDS011;21486;51.916;8.378;2023-08-30T12:00:45;9.20;;;5.13;;
35380;SDS011;21486;51.916;8.378;2023-08-30T12:03:14;7.72;;;5.40;;
35380;SDS011;21486;51.916;8.378;2023-08-30T12:05:44;10.35;;;5.35;;
35380;SDS011;21486;51.916;8.378;2023-08-30T12:10:55;9.03;;;5.47;;
35380;SDS011;21486;51.916;8.378;2023-08-30T12:13:25;10.10;;;5.60;;
35380;SDS011;21486;51.916;8.378;2023-08-30T12:15:56;9.87;;;5.83;;
35380;SDS011;21486;51.916;8.378;2023-08-30T12:18:22;10.83;;;6.10;;
35380;SDS011;21486;51.916;8.378;2023-08-30T12:23:22;10.75;;;6.55;;
35380;SDS011;21486;51.916;8.378;2023-08-30T12:25:58;10.82;;;6.00;;
35380;SDS011;21486;51.916;8.378;2023-08-30T12:28:32;13.40;;;7.28;;
35380;SDS011;21486;51.916;8.378;2023-08-30T12:30:59;9.85;;;6.07;;
35380;SDS011;21486;51.916;8.378;2023-08-30T12:33:26;11.10;;;6.13;;
35380;SDS011;21486;51.916;8.378;2023-08-30T12:35:52;11.43;;;6.15;;
35380;SDS011;21486;51.916;8.378;2023-08-30T12:38:18;13.07;;;6.40;;
35380;SDS011;21486;51.916;8.378;2023-08-30T12:40:44;9.32;;;5.88;;
35380;SDS011;21486;51.916;8.378;2023-08-30T12:43:10;12.80;;;5.82;;
35380;SDS011;21486;51.916;8.378;2023-08-30T12:45:37;10.23;;;5.30;;
35380;SDS011;21486;51.916;8.378;2023-08-30T12:48:04;8.90;;;5.60;;
35380;SDS011;21486;51.916;8.378;2023-08-30T12:50:30;8.70;;;5.68;;
35380;SDS011;21486;51.916;8.378;2023-08-30T12:52:55;11.30;;;6.22;;
35380;SDS011;21486;51.916;8.378;2023-08-30T12:55:21;7.93;;;5.83;;
35380;SDS011;21486;51.916;8.378;2023-08-30T12:57:47;10.37;;;5.47;;
35380;SDS011;21486;51.916;8.378;2023-08-30T13:00:12;11.07;;;6.60;;
35380;SDS011;21486;51.916;8.378;2023-08-30T13:02:39;11.02;;;6.50;;
35380;SDS011;21486;51.916;8.378;2023-08-30T13:05:05;13.02;;;7.13;;
35380;SDS011;21486;51.916;8.378;2023-08-30T13:07:31;12.57;;;7.73;;
35380;SDS011;21486;51.916;8.378;2023-08-30T13:09:57;9.93;;;7.10;;
35380;SDS011;21486;51.916;8.378;2023-08-30T13:12:22;14.10;;;8.40;;
35380;SDS011;21486;51.916;8.378;2023-08-30T13:14:48;12.20;;;8.80;;
35380;SDS011;21486;51.916;8.378;2023-08-30T13:17:13;13.93;;;10.30;;
35380;SDS011;21486;51.916;8.378;2023-08-30T13:19:42;15.63;;;11.48;;
35380;SDS011;21486;51.916;8.378;2023-08-30T13:22:08;15.23;;;11.75;;
35380;SDS011;21486;51.916;8.378;2023-08-30T13:24:34;18.90;;;12.15;;
35380;SDS011;21486;51.916;8.378;2023-08-30T13:27:00;17.55;;;11.68;;
35380;SDS011;21486;51.916;8.378;2023-08-30T13:29:26;14.90;;;11.77;;
35380;SDS011;21486;51.916;8.378;2023-08-30T13:31:51;20.90;;;12.70;;
35380;SDS011;21486;51.916;8.378;2023-08-30T13:34:17;15.65;;;11.98;;
35380;SDS011;21486;51.916;8.378;2023-08-30T13:36:42;17.37;;;13.07;;
35380;SDS011;21486;51.916;8.378;2023-08-30T13:39:08;19.47;;;13.80;;
35380;SDS011;21486;51.916;8.378;2023-08-30T13:41:34;17.58;;;13.35;;
35380;SDS011;21486;51.916;8.378;2023-08-30T13:44:00;19.13;;;13.50;;
35380;SDS011;21486;51.916;8.378;2023-08-30T13:46:28;17.87;;;12.30;;
35380;SDS011;21486;51.916;8.378;2023-08-30T13:48:54;20.98;;;14.10;;
35380;SDS011;21486;51.916;8.378;2023-08-30T13:51:21;20.50;;;14.33;;
35380;SDS011;21486;51.916;8.378;2023-08-30T13:53:47;17.20;;;12.90;;
35380;SDS011;21486;51.916;8.378;2023-08-30T13:56:13;16.88;;;12.48;;
35380;SDS011;21486;51.916;8.378;2023-08-30T13:58:39;17.98;;;13.32;;
35380;SDS011;21486;51.916;8.378;2023-08-30T14:01:04;18.63;;;12.57;;
35380;SDS011;21486;51.916;8.378;2023-08-30T14:03:30;16.98;;;12.75;;
35380;SDS011;21486;51.916;8.378;2023-08-30T14:05:56;16.30;;;12.13;;
35380;SDS011;21486;51.916;8.378;2023-08-30T14:08:21;19.08;;;12.60;;
35380;SDS011;21486;51.916;8.378;2023-08-30T14:10:47;17.30;;;12.33;;
35380;SDS011;21486;51.916;8.378;2023-08-30T14:13:13;17.43;;;13.67;;
35380;SDS011;21486;51.916;8.378;2023-08-30T14:15:38;17.60;;;12.60;;
35380;SDS011;21486;51.916;8.378;2023-08-30T14:18:05;17.00;;;12.05;;
35380;SDS011;21486;51.916;8.378;2023-08-30T14:20:31;22.38;;;15.75;;
35380;SDS011;21486;51.916;8.378;2023-08-30T14:22:56;17.90;;;14.30;;
35380;SDS011;21486;51.916;8.378;2023-08-30T14:25:22;17.93;;;12.27;;
35380;SDS011;21486;51.916;8.378;2023-08-30T14:27:47;18.60;;;12.60;;
35380;SDS011;21486;51.916;8.378;2023-08-30T14:30:13;19.90;;;14.40;;
35380;SDS011;21486;51.916;8.378;2023-08-30T14:32:39;16.08;;;11.90;;
35380;SDS011;21486;51.916;8.378;2023-08-30T14:35:05;17.45;;;12.32;;
35380;SDS011;21486;51.916;8.378;2023-08-30T14:37:31;16.38;;;11.77;;